createdAt,value
2022-10-05T00:00:26.388Z,213.60
2022-10-05T00:02:59.198Z,170.20
2022-10-05T00:05:32.638Z,260.20
2022-10-05T00:08:08.627Z,52.75
2022-10-05T00:10:42.775Z,217.67
2022-10-05T00:13:15.835Z,258.00
2022-10-05T00:15:47.452Z,101.50
2022-10-05T00:18:21.471Z,142.25
2022-10-05T00:20:53.208Z,249.40
2022-10-05T00:23:26.568Z,249.67
2022-10-05T00:25:57.520Z,273.75
2022-10-05T00:28:31.615Z,279.25
2022-10-05T00:31:03.290Z,242.33
2022-10-05T00:33:36.062Z,298.75
2022-10-05T00:36:09.640Z,297.50
2022-10-05T00:38:41.212Z,254.40
2022-10-05T00:41:15.605Z,211.75
2022-10-05T00:43:58.610Z,292.80
2022-10-05T00:46:34.715Z,198.00
2022-10-05T00:49:13.349Z,295.25
2022-10-05T00:51:50.228Z,294.00
2022-10-05T00:54:29.090Z,269.50
2022-10-05T00:57:15.022Z,97.00
2022-10-05T00:59:52.495Z,303.00
2022-10-05T01:02:30.912Z,285.50
2022-10-05T01:05:08.637Z,287.67
2022-10-05T01:07:44.760Z,270.00
2022-10-05T01:10:21.351Z,263.25
2022-10-05T01:12:57.906Z,50.75
2022-10-05T01:15:34.336Z,252.40
2022-10-05T01:18:09.103Z,241.40
2022-10-05T01:20:47.859Z,245.00
2022-10-05T01:23:33.804Z,247.40
2022-10-05T01:26:12.407Z,62.80
2022-10-05T01:28:50.257Z,205.50
2022-10-05T01:31:24.905Z,66.60
2022-10-05T01:34:00.161Z,203.80
2022-10-05T01:36:33.718Z,233.40
2022-10-05T01:39:12.291Z,38.25
2022-10-05T01:41:46.321Z,250.80
2022-10-05T01:44:20.847Z,42.25
2022-10-05T01:46:55.715Z,104.00
2022-10-05T01:49:33.945Z,312.50
2022-10-05T01:52:11.396Z,298.75
2022-10-05T01:54:48.095Z,291.25
2022-10-05T01:57:24.058Z,199.00
2022-10-05T02:00:05.069Z,278.00
2022-10-05T02:02:46.609Z,284.25
2022-10-05T02:05:21.546Z,116.20
2022-10-05T02:07:56.126Z,84.40
2022-10-05T02:10:32.067Z,45.25
2022-10-05T02:13:05.682Z,266.40
2022-10-05T02:15:42.766Z,62.60
2022-10-05T02:18:15.958Z,122.20
2022-10-05T02:20:49.443Z,43.50
2022-10-05T02:23:22.539Z,48.75
2022-10-05T02:25:55.051Z,43.50
2022-10-05T02:28:29.671Z,48.00
2022-10-05T02:31:06.505Z,46.00
2022-10-05T02:33:38.650Z,50.25
2022-10-05T02:36:17.403Z,40.00
2022-10-05T02:38:57.495Z,33.00
2022-10-05T02:41:34.081Z,52.00
2022-10-05T02:44:12.335Z,40.25
2022-10-05T02:46:49.166Z,40.00
2022-10-05T02:49:28.372Z,35.75
2022-10-05T02:52:03.055Z,34.50
2022-10-05T02:54:42.544Z,37.00
2022-10-05T02:57:18.305Z,49.00
2022-10-05T02:59:56.315Z,44.50
2022-10-05T03:02:32.689Z,47.00
2022-10-05T03:05:09.773Z,40.25
2022-10-05T03:07:45.055Z,47.75
2022-10-05T03:10:18.541Z,36.75
2022-10-05T03:12:56.357Z,48.25
2022-10-05T03:15:36.836Z,24.25
2022-10-05T03:18:16.385Z,39.00
2022-10-05T03:20:51.619Z,41.50
2022-10-05T03:23:29.297Z,41.50
2022-10-05T03:26:07.530Z,41.50
2022-10-05T03:28:42.459Z,43.25
2022-10-05T03:31:19.777Z,30.50
2022-10-05T03:33:56.122Z,31.60
2022-10-05T03:36:30.704Z,40.33
2022-10-05T03:39:06.725Z,52.40
2022-10-05T03:41:44.720Z,35.00
2022-10-05T03:44:27.855Z,33.25
2022-10-05T03:47:08.199Z,28.00
2022-10-05T03:49:51.208Z,131.00
2022-10-05T03:52:25.136Z,35.40
2022-10-05T03:54:59.696Z,46.25
2022-10-05T03:57:32.202Z,42.50
2022-10-05T04:00:06.241Z,68.80
2022-10-05T04:03:01.874Z,31.25
2022-10-05T04:05:38.873Z,27.75
2022-10-05T04:08:13.563Z,18.25
2022-10-05T04:10:46.817Z,22.50
2022-10-05T04:13:22.104Z,19.50
2022-10-05T04:15:59.061Z,11.60
2022-10-05T04:18:32.779Z,243.40
2022-10-05T04:21:10.327Z,65.60
2022-10-05T04:23:47.716Z,185.50
2022-10-05T04:26:21.965Z,284.25
2022-10-05T04:28:57.845Z,276.00
2022-10-05T04:31:37.982Z,183.00
2022-10-05T04:34:29.857Z,152.20
2022-10-05T04:37:06.481Z,274.00
2022-10-05T04:39:42.952Z,290.25
2022-10-05T04:42:22.160Z,317.50
2022-10-05T04:45:10.057Z,48.00
2022-10-05T04:48:00.861Z,222.25
2022-10-05T04:50:40.002Z,302.00
2022-10-05T04:53:22.845Z,297.50
2022-10-05T04:55:59.239Z,301.50
2022-10-05T04:58:42.396Z,296.00
2022-10-05T05:01:23.928Z,238.25
2022-10-05T05:04:08.785Z,296.75
2022-10-05T05:06:44.261Z,307.00
2022-10-05T05:09:34.211Z,288.00
2022-10-05T05:12:20.135Z,292.50
2022-10-05T05:15:09.749Z,282.00
2022-10-05T05:17:52.087Z,151.75
2022-10-05T05:20:26.028Z,271.75
2022-10-05T05:23:05.459Z,297.75
2022-10-05T05:25:42.585Z,230.00
2022-10-05T05:28:31.059Z,304.50
2022-10-05T05:31:06.606Z,280.25
2022-10-05T05:33:46.938Z,299.50
2022-10-05T05:36:24.037Z,302.00
2022-10-05T05:39:19.980Z,310.50
2022-10-05T05:41:59.695Z,304.75
2022-10-05T05:44:39.003Z,301.75
2022-10-05T05:47:17.219Z,303.00
2022-10-05T05:50:07.294Z,311.00
2022-10-05T05:52:44.468Z,309.00
2022-10-05T05:55:18.937Z,312.00
2022-10-05T05:57:53.937Z,303.75
2022-10-05T06:00:29.003Z,263.60
2022-10-05T06:03:07.287Z,311.67
2022-10-05T06:05:43.148Z,316.00
2022-10-05T06:08:19.124Z,210.25
2022-10-05T06:10:56.343Z,262.00
2022-10-05T06:13:30.423Z,301.00
2022-10-05T06:16:07.851Z,217.80
2022-10-05T06:18:40.749Z,85.00
2022-10-05T06:21:16.592Z,70.00
2022-10-05T06:23:55.484Z,23.00
2022-10-05T06:26:43.005Z,37.00
2022-10-05T06:29:17.987Z,59.20
2022-10-05T06:31:59.018Z,80.60
2022-10-05T06:34:41.681Z,65.20
2022-10-05T06:37:15.905Z,98.60
2022-10-05T06:40:01.847Z,61.40
2022-10-05T06:42:52.830Z,86.20
2022-10-05T06:45:45.163Z,106.25
2022-10-05T06:48:38.292Z,136.00
2022-10-05T06:51:38.380Z,153.00
2022-10-05T06:54:26.245Z,123.20
2022-10-05T06:57:00.805Z,239.20
2022-10-05T06:59:35.008Z,215.60
2022-10-05T07:02:09.969Z,191.00
2022-10-05T07:04:54.027Z,199.00
2022-10-05T07:07:28.458Z,214.40
2022-10-05T07:10:11.244Z,226.25
2022-10-05T07:12:53.340Z,217.60
2022-10-05T07:15:43.390Z,203.67
2022-10-05T07:18:27.760Z,206.67
2022-10-05T07:21:02.864Z,210.00
2022-10-05T07:23:41.700Z,141.25
2022-10-05T07:26:16.764Z,196.67
2022-10-05T07:28:51.328Z,165.50
2022-10-05T07:31:30.504Z,161.20
2022-10-05T07:34:07.177Z,201.20
2022-10-05T07:37:01.987Z,240.80
2022-10-05T07:39:58.989Z,211.25
2022-10-05T07:42:48.868Z,234.00
2022-10-05T07:45:30.277Z,103.00
2022-10-05T07:48:09.968Z,214.80
2022-10-05T07:50:44.668Z,253.40
2022-10-05T07:53:20.333Z,292.00
2022-10-05T07:55:55.152Z,292.50
2022-10-05T07:58:31.149Z,271.50
2022-10-05T08:01:11.488Z,239.25
2022-10-05T08:03:53.688Z,160.50
2022-10-05T08:06:44.756Z,209.25
2022-10-05T08:09:26.042Z,271.00
2022-10-05T08:12:01.517Z,270.75
2022-10-05T08:14:39.099Z,241.25
2022-10-05T08:17:15.397Z,170.75
2022-10-05T08:19:50.733Z,229.40
2022-10-05T08:22:24.947Z,248.60
2022-10-05T08:25:01.949Z,253.00
2022-10-05T08:27:39.328Z,292.50
2022-10-05T08:30:13.773Z,300.33
2022-10-05T08:32:48.360Z,272.33
2022-10-05T08:35:27.148Z,232.67
2022-10-05T08:37:58.973Z,307.25
2022-10-05T08:40:49.070Z,304.67
2022-10-05T08:43:31.732Z,306.75
2022-10-05T08:46:29.644Z,297.50
2022-10-05T08:49:05.927Z,216.75
2022-10-05T08:51:48.523Z,210.25
2022-10-05T08:54:37.118Z,170.25
2022-10-05T08:57:31.969Z,56.40
2022-10-05T09:00:14.634Z,127.25
2022-10-05T09:03:01.223Z,131.00
2022-10-05T09:05:49.210Z,92.50
2022-10-05T09:08:34.168Z,53.40
2022-10-05T09:11:08.671Z,161.50
2022-10-05T09:14:05.902Z,75.20
2022-10-05T09:16:51.689Z,72.20
2022-10-05T09:19:36.455Z,32.60
2022-10-05T09:22:17.198Z,129.00
2022-10-05T09:24:58.496Z,155.75
2022-10-05T09:27:37.535Z,75.50
2022-10-05T09:30:20.321Z,41.00
2022-10-05T09:33:25.177Z,151.50
2022-10-05T09:36:06.767Z,58.00
2022-10-05T09:38:45.056Z,34.40
2022-10-05T09:41:40.426Z,37.20
2022-10-05T09:44:21.190Z,45.60
2022-10-05T09:47:02.095Z,78.40
2022-10-05T09:49:47.588Z,70.40
2022-10-05T09:55:49.414Z,133.25
2022-10-05T09:58:56.139Z,152.50
2022-10-05T10:01:43.903Z,151.00
2022-10-05T10:04:38.764Z,109.00
2022-10-05T10:07:39.876Z,128.25
2022-10-05T10:10:49.674Z,186.00
2022-10-05T10:13:54.813Z,170.00
2022-10-05T10:16:38.645Z,218.75
2022-10-05T10:19:27.250Z,72.00
2022-10-05T10:22:42.269Z,183.60
2022-10-05T10:25:52.970Z,206.25
2022-10-05T10:28:58.024Z,226.00
2022-10-05T10:32:00.182Z,190.00
2022-10-05T10:34:58.485Z,181.50
2022-10-05T10:38:06.018Z,227.25
2022-10-05T10:40:45.718Z,235.40
2022-10-05T10:43:42.578Z,219.20
2022-10-05T10:46:28.992Z,65.00
2022-10-05T10:49:17.374Z,109.67
2022-10-05T10:52:16.543Z,254.75
2022-10-05T10:55:30.813Z,264.00
2022-10-05T10:58:41.295Z,114.00
2022-10-05T11:01:33.075Z,140.40
2022-10-05T11:04:47.751Z,106.20
2022-10-05T11:07:46.968Z,144.25
2022-10-05T11:10:52.215Z,206.33
2022-10-05T11:14:05.704Z,159.25
2022-10-05T11:17:24.669Z,71.00
2022-10-05T11:20:21.321Z,91.40
2022-10-05T11:23:08.373Z,113.67
2022-10-05T11:26:07.064Z,130.25
2022-10-05T11:28:54.938Z,119.75
2022-10-05T11:32:06.080Z,182.00
2022-10-05T11:35:06.702Z,107.25
2022-10-05T11:38:05.502Z,220.00
2022-10-05T11:40:59.948Z,128.25
2022-10-05T11:44:09.917Z,222.60
2022-10-05T11:46:52.089Z,206.00
2022-10-05T11:49:39.030Z,197.60
2022-10-05T11:52:22.219Z,288.00
2022-10-05T11:55:18.850Z,341.50
2022-10-05T11:57:59.029Z,268.00
2022-10-05T12:00:41.839Z,270.80
2022-10-05T12:03:41.118Z,273.25
2022-10-05T12:06:52.286Z,274.50
2022-10-05T12:09:39.353Z,58.00
2022-10-05T12:12:18.987Z,151.25
2022-10-05T12:15:00.819Z,214.25
2022-10-05T12:17:42.172Z,255.00
2022-10-05T12:20:20.592Z,240.00
2022-10-05T12:23:01.079Z,226.60
2022-10-05T12:25:38.198Z,307.00
2022-10-05T12:28:18.041Z,249.25
2022-10-05T12:31:09.443Z,240.75
2022-10-05T12:33:49.893Z,242.25
2022-10-05T12:36:35.908Z,305.33
2022-10-05T12:39:23.295Z,271.00
2022-10-05T12:42:07.228Z,262.60
2022-10-05T12:45:05.800Z,286.50
2022-10-05T12:47:53.893Z,249.75
2022-10-05T12:50:33.852Z,239.67
2022-10-05T12:53:23.952Z,305.75
2022-10-05T12:56:07.866Z,308.00
2022-10-05T12:58:52.368Z,311.67
2022-10-05T13:01:36.134Z,242.20
2022-10-05T13:04:21.333Z,211.40
2022-10-05T13:07:08.482Z,249.25
2022-10-05T13:09:46.087Z,233.60
2022-10-05T13:12:27.974Z,242.25
2022-10-05T13:15:06.490Z,298.75
2022-10-05T13:17:48.989Z,257.67
2022-10-05T13:20:30.691Z,222.25
2022-10-05T13:23:10.742Z,217.50
2022-10-05T13:25:47.921Z,222.75
2022-10-05T13:28:26.145Z,175.80
2022-10-05T13:31:08.225Z,163.20
2022-10-05T13:33:59.641Z,193.25
2022-10-05T13:36:42.384Z,222.25
2022-10-05T13:39:26.404Z,262.00
2022-10-05T13:42:07.353Z,206.00
2022-10-05T13:44:47.832Z,148.00
2022-10-05T13:47:27.257Z,46.25
2022-10-05T13:50:05.912Z,146.75
2022-10-05T13:52:49.261Z,199.00
2022-10-05T13:55:32.877Z,301.25
2022-10-05T13:58:09.332Z,295.00
2022-10-05T14:00:51.802Z,102.20
2022-10-05T14:03:36.388Z,139.75
2022-10-05T14:06:16.647Z,39.20
2022-10-05T14:08:54.795Z,48.20
2022-10-05T14:11:34.905Z,218.33
2022-10-05T14:14:17.302Z,151.75
2022-10-05T14:16:56.103Z,221.75
2022-10-05T14:19:31.227Z,204.75
2022-10-05T14:22:05.679Z,216.25
2022-10-05T14:24:44.287Z,284.60
2022-10-05T14:27:29.395Z,125.50
2022-10-05T14:30:03.620Z,115.75
2022-10-05T14:32:51.367Z,100.80
2022-10-05T14:35:26.832Z,141.00
2022-10-05T14:38:02.991Z,146.75
2022-10-05T14:40:36.754Z,153.75
2022-10-05T14:43:22.848Z,177.50
2022-10-05T14:46:02.767Z,92.00
2022-10-05T14:48:46.414Z,172.25
2022-10-05T14:51:33.348Z,124.25
2022-10-05T14:54:17.277Z,63.60
2022-10-05T14:56:57.892Z,114.00
2022-10-05T14:59:48.245Z,182.25
2022-10-05T15:02:46.412Z,142.50
2022-10-05T15:05:28.158Z,94.25
2022-10-05T15:08:10.162Z,186.75
2022-10-05T15:10:46.573Z,181.00
2022-10-05T15:13:21.648Z,166.67
2022-10-05T15:15:58.144Z,193.00
2022-10-05T15:18:39.526Z,171.75
2022-10-05T15:21:32.762Z,206.00
2022-10-05T15:24:10.778Z,215.20
2022-10-05T15:26:51.954Z,146.67
2022-10-05T15:29:43.378Z,237.40
2022-10-05T15:32:30.351Z,125.50
2022-10-05T15:35:32.049Z,61.20
2022-10-05T15:38:15.524Z,107.50
2022-10-05T15:40:56.273Z,133.75
2022-10-05T15:43:29.679Z,81.75
2022-10-05T15:46:15.314Z,272.80
2022-10-05T15:48:55.754Z,222.00
2022-10-05T15:51:52.290Z,285.50
2022-10-05T15:55:00.313Z,184.50
2022-10-05T15:57:42.314Z,193.50
2022-10-05T16:00:16.339Z,215.75
2022-10-05T16:02:55.363Z,273.67
2022-10-05T16:05:58.733Z,60.80
2022-10-05T16:08:59.972Z,103.80
2022-10-05T16:11:52.978Z,171.00
2022-10-05T16:14:37.515Z,130.60
2022-10-05T16:17:27.918Z,132.00
2022-10-05T16:20:16.108Z,81.60
2022-10-05T16:22:54.803Z,82.20
2022-10-05T16:25:34.851Z,85.25
2022-10-05T16:28:20.920Z,92.20
2022-10-05T16:31:02.284Z,137.50
2022-10-05T16:33:55.917Z,62.00
2022-10-05T16:36:45.902Z,172.40
2022-10-05T16:39:25.150Z,110.00
2022-10-05T16:42:05.410Z,240.33
2022-10-05T16:44:51.944Z,39.50
2022-10-05T16:47:49.692Z,91.20
2022-10-05T16:50:26.936Z,72.60
2022-10-05T16:53:03.918Z,10.50
2022-10-05T16:55:42.138Z,64.00
2022-10-05T16:58:21.736Z,64.00
2022-10-05T17:01:12.463Z,34.25
2022-10-05T17:03:58.639Z,47.75
2022-10-05T17:07:06.917Z,67.40
2022-10-05T17:09:54.279Z,137.20
2022-10-05T17:12:44.267Z,71.00
2022-10-05T17:15:31.011Z,5.80
2022-10-05T17:18:19.676Z,166.25
2022-10-05T17:21:04.700Z,150.25
2022-10-05T17:23:51.760Z,63.80
2022-10-05T17:26:58.408Z,4.50
2022-10-05T17:29:35.227Z,26.75
2022-10-05T17:32:37.857Z,179.50
2022-10-05T17:35:22.019Z,157.75
2022-10-05T17:38:21.959Z,131.50
2022-10-05T17:41:18.704Z,86.75
2022-10-05T17:44:29.856Z,123.33
2022-10-05T17:47:05.381Z,197.00
2022-10-05T17:50:19.065Z,189.75
2022-10-05T17:53:41.161Z,150.60
2022-10-05T17:56:13.301Z,157.75
2022-10-05T17:59:08.109Z,162.75
2022-10-05T18:01:41.667Z,197.50
2022-10-05T18:04:35.888Z,140.50
2022-10-05T18:07:21.171Z,124.75
2022-10-05T18:10:30.116Z,110.80
2022-10-05T18:13:36.252Z,183.00
2022-10-05T18:16:08.971Z,185.50
2022-10-05T18:18:59.622Z,176.25
2022-10-05T18:21:39.946Z,70.00
2022-10-05T18:24:50.443Z,57.80
2022-10-05T18:27:44.138Z,165.00
2022-10-05T18:30:24.461Z,74.80
2022-10-05T18:33:29.673Z,57.60
2022-10-05T18:36:16.807Z,33.80
2022-10-05T18:38:59.171Z,111.20
2022-10-05T18:41:43.494Z,166.75
2022-10-05T18:44:42.800Z,209.67
2022-10-05T18:47:25.713Z,89.80
2022-10-05T18:50:08.369Z,45.25
2022-10-05T18:52:58.249Z,62.80
2022-10-05T18:55:38.687Z,123.00
2022-10-05T18:58:29.665Z,66.00
2022-10-05T19:01:44.770Z,87.40
2022-10-05T19:04:27.822Z,109.75
2022-10-05T19:07:15.137Z,101.50
2022-10-05T19:10:06.555Z,160.25
2022-10-05T19:12:53.783Z,76.50
2022-10-05T19:15:32.652Z,127.40
2022-10-05T19:18:40.162Z,19.75
2022-10-05T19:21:26.039Z,150.20
2022-10-05T19:24:22.464Z,236.00
2022-10-05T19:27:08.214Z,86.67
2022-10-05T19:30:03.775Z,83.60
2022-10-05T19:32:50.708Z,55.00
2022-10-05T19:35:34.025Z,77.40
2022-10-05T19:41:04.960Z,184.25
2022-10-05T19:43:56.265Z,190.50
2022-10-05T19:46:43.947Z,213.50
2022-10-05T19:49:16.281Z,233.67
2022-10-05T19:51:53.875Z,250.00
2022-10-05T19:54:31.437Z,249.00
2022-10-05T19:57:04.535Z,240.33
2022-10-05T19:59:38.812Z,237.60
2022-10-05T20:02:18.489Z,159.25
2022-10-05T20:04:51.610Z,170.67
2022-10-05T20:07:24.874Z,248.00
2022-10-05T20:10:01.026Z,76.20
2022-10-05T20:12:52.034Z,263.50
2022-10-05T20:15:43.218Z,254.00
2022-10-05T20:19:00.500Z,224.67
2022-10-05T20:21:44.759Z,265.00
2022-10-05T20:24:18.718Z,146.25
2022-10-05T20:27:16.216Z,70.50
2022-10-05T20:29:48.740Z,196.75
2022-10-05T20:32:21.530Z,181.75
2022-10-05T20:34:56.968Z,124.75
2022-10-05T20:37:29.469Z,72.60
2022-10-05T20:40:02.119Z,81.20
2022-10-05T20:42:35.623Z,171.40
2022-10-05T20:45:09.420Z,127.50
2022-10-05T20:47:41.842Z,160.67
2022-10-05T20:50:14.387Z,133.75
2022-10-05T20:52:46.802Z,281.00
2022-10-05T20:55:19.226Z,70.00
2022-10-05T20:57:53.964Z,165.75
2022-10-05T21:00:25.876Z,22.75
2022-10-05T21:02:57.842Z,159.25
2022-10-05T21:05:30.649Z,223.75
2022-10-05T21:08:03.330Z,114.75
2022-10-05T21:10:35.300Z,60.60
2022-10-05T21:13:08.508Z,27.20
2022-10-05T21:15:40.674Z,10.50
2022-10-05T21:18:13.309Z,5.25
2022-10-05T21:20:52.014Z,87.60
2022-10-05T21:23:24.376Z,6.20
2022-10-05T21:25:56.389Z,2.40
2022-10-05T21:28:30.987Z,2.40
2022-10-05T21:31:03.057Z,158.00
2022-10-05T21:33:34.863Z,65.20
2022-10-05T21:36:07.286Z,56.50
2022-10-05T21:38:39.709Z,28.25
2022-10-05T21:41:11.906Z,287.25
2022-10-05T21:43:46.699Z,296.50
2022-10-05T21:46:21.684Z,292.75
2022-10-05T21:48:54.684Z,291.75
2022-10-05T21:51:28.445Z,301.25
2022-10-05T21:54:04.732Z,287.00
2022-10-05T21:56:39.326Z,287.25
2022-10-05T21:59:15.648Z,295.75
2022-10-05T22:01:47.774Z,283.00
2022-10-05T22:04:19.741Z,278.00
2022-10-05T22:06:52.024Z,292.67
2022-10-05T22:09:24.438Z,283.00
2022-10-05T22:11:56.337Z,286.50
2022-10-05T22:14:30.797Z,281.00
2022-10-05T22:17:03.299Z,279.00
2022-10-05T22:19:35.647Z,288.75
2022-10-05T22:22:11.686Z,294.75
2022-10-05T22:24:43.680Z,276.00
2022-10-05T22:27:15.918Z,279.25
2022-10-05T22:29:50.283Z,280.50
2022-10-05T22:32:22.270Z,275.00
2022-10-05T22:34:54.616Z,264.75
2022-10-05T22:37:26.602Z,297.50
2022-10-05T22:39:59.303Z,277.50
2022-10-05T22:42:30.977Z,304.33
2022-10-05T22:45:04.751Z,288.75
2022-10-05T22:47:37.018Z,276.00
2022-10-05T22:50:09.640Z,293.00
2022-10-05T22:52:41.199Z,302.50
2022-10-05T22:55:13.915Z,304.25
2022-10-05T22:57:46.564Z,277.00
2022-10-05T23:00:27.628Z,266.25
2022-10-05T23:03:03.354Z,304.25
2022-10-05T23:05:35.596Z,285.00
2022-10-05T23:08:08.464Z,283.00
2022-10-05T23:10:40.705Z,297.75
2022-10-05T23:13:12.708Z,320.25
2022-10-05T23:15:46.580Z,274.50
2022-10-05T23:18:18.981Z,301.00
2022-10-05T23:20:57.374Z,333.00
2022-10-05T23:23:29.943Z,271.25
2022-10-05T23:26:05.667Z,259.50
2022-10-05T23:28:38.005Z,283.00
2022-10-05T23:31:12.242Z,269.00
2022-10-05T23:33:44.433Z,240.25
2022-10-05T23:36:18.192Z,0.00
2022-10-05T23:38:50.161Z,0.00
2022-10-05T23:41:23.319Z,0.00
2022-10-05T23:43:56.160Z,0.00
2022-10-05T23:46:30.497Z,1.75
2022-10-05T23:49:02.510Z,1.40
2022-10-05T23:51:34.963Z,8.75
2022-10-05T23:54:07.690Z,11.75
2022-10-05T23:56:40.432Z,294.50
2022-10-05T23:59:12.497Z,282.75
